Tarboro, South Carolina
Current Conditions -  °F | °C
As of 8:56 AM on Monday 20 Oct 2014 (Local Time) from KNBC Reporting Station
Few Clouds Few Clouds  
Wind Chill: 61°   Ceiling: Unl
Heat Index: 61°   Visibility: 10mi
Dew Point: 52°   Wind: 7mph
Humidity: 72%   Direction: 40°NE
Pressure: 30.14"   Gusts: NA
Location:  32.4819°N, 81.1158°W
Report Text: KNBC 201256Z 04006KT 10SM FEW030 FEW120 16/11 A3014 RMK AO2 SLP205 T01610111 $
Loading
Personal Weather Stations






























Interactive Weather Map
Tropical Storm Tracking
New forecast layout! Learn more

10-Day Weather Forecast

Advertisements
Track Severe Weather on mobile